sensor_id;sensor_type;location;lat;lon;timestamp;P1;durP1;ratioP1;P2;durP2;ratioP2
46439;SDS011;32138;50.966;6.968;2023-03-31T00:00:59;4.65;;;1.75;;
46439;SDS011;32138;50.966;6.968;2023-03-31T00:02:00;5.90;;;1.65;;
46439;SDS011;32138;50.966;6.968;2023-03-31T00:03:12;6.07;;;1.67;;
46439;SDS011;32138;50.966;6.968;2023-03-31T00:04:21;5.68;;;1.50;;
46439;SDS011;32138;50.966;6.968;2023-03-31T00:05:23;7.50;;;2.17;;
46439;SDS011;32138;50.966;6.968;2023-03-31T00:06:25;5.05;;;1.40;;
46439;SDS011;32138;50.966;6.968;2023-03-31T00:07:26;5.80;;;2.10;;
46439;SDS011;32138;50.966;6.968;2023-03-31T00:08:27;6.20;;;1.67;;
46439;SDS011;32138;50.966;6.968;2023-03-31T00:09:34;6.60;;;1.67;;
46439;SDS011;32138;50.966;6.968;2023-03-31T00:10:35;10.35;;;2.42;;
46439;SDS011;32138;50.966;6.968;2023-03-31T00:11:36;5.43;;;1.48;;
46439;SDS011;32138;50.966;6.968;2023-03-31T00:12:37;6.03;;;1.55;;
46439;SDS011;32138;50.966;6.968;2023-03-31T00:13:38;7.93;;;1.30;;
46439;SDS011;32138;50.966;6.968;2023-03-31T00:14:39;7.85;;;1.60;;
46439;SDS011;32138;50.966;6.968;2023-03-31T00:15:40;6.00;;;1.77;;
46439;SDS011;32138;50.966;6.968;2023-03-31T00:16:41;4.88;;;1.77;;
46439;SDS011;32138;50.966;6.968;2023-03-31T00:17:41;13.00;;;2.22;;
46439;SDS011;32138;50.966;6.968;2023-03-31T00:18:42;3.83;;;1.30;;
46439;SDS011;32138;50.966;6.968;2023-03-31T00:19:46;7.95;;;1.80;;
46439;SDS011;32138;50.966;6.968;2023-03-31T00:20:48;6.00;;;1.27;;
46439;SDS011;32138;50.966;6.968;2023-03-31T00:21:51;8.43;;;2.20;;
46439;SDS011;32138;50.966;6.968;2023-03-31T00:22:53;7.18;;;2.22;;
46439;SDS011;32138;50.966;6.968;2023-03-31T00:23:57;7.40;;;2.05;;
46439;SDS011;32138;50.966;6.968;2023-03-31T00:25:04;6.68;;;2.25;;
46439;SDS011;32138;50.966;6.968;2023-03-31T00:26:06;7.20;;;1.60;;
46439;SDS011;32138;50.966;6.968;2023-03-31T00:27:07;5.95;;;1.70;;
46439;SDS011;32138;50.966;6.968;2023-03-31T00:28:08;7.53;;;2.10;;
46439;SDS011;32138;50.966;6.968;2023-03-31T00:29:11;4.63;;;1.63;;
46439;SDS011;32138;50.966;6.968;2023-03-31T00:30:13;7.35;;;2.20;;
46439;SDS011;32138;50.966;6.968;2023-03-31T00:31:14;5.15;;;1.73;;
46439;SDS011;32138;50.966;6.968;2023-03-31T00:32:15;8.07;;;1.75;;
46439;SDS011;32138;50.966;6.968;2023-03-31T00:33:16;9.68;;;2.30;;
46439;SDS011;32138;50.966;6.968;2023-03-31T00:34:17;7.53;;;1.65;;
46439;SDS011;32138;50.966;6.968;2023-03-31T00:35:17;6.22;;;1.65;;
46439;SDS011;32138;50.966;6.968;2023-03-31T00:36:18;8.35;;;2.28;;
46439;SDS011;32138;50.966;6.968;2023-03-31T00:37:26;10.90;;;2.10;;
46439;SDS011;32138;50.966;6.968;2023-03-31T00:38:28;16.05;;;2.22;;
46439;SDS011;32138;50.966;6.968;2023-03-31T00:39:29;5.97;;;1.63;;
46439;SDS011;32138;50.966;6.968;2023-03-31T00:40:34;8.25;;;1.90;;
46439;SDS011;32138;50.966;6.968;2023-03-31T00:41:35;9.60;;;2.03;;
46439;SDS011;32138;50.966;6.968;2023-03-31T00:42:41;11.30;;;2.08;;
46439;SDS011;32138;50.966;6.968;2023-03-31T00:44:04;9.25;;;1.90;;
46439;SDS011;32138;50.966;6.968;2023-03-31T00:45:23;7.82;;;1.77;;
46439;SDS011;32138;50.966;6.968;2023-03-31T00:46:49;8.52;;;1.75;;
46439;SDS011;32138;50.966;6.968;2023-03-31T00:49:13;6.57;;;1.88;;
46439;SDS011;32138;50.966;6.968;2023-03-31T00:50:23;5.50;;;1.42;;
46439;SDS011;32138;50.966;6.968;2023-03-31T00:51:28;10.38;;;2.22;;
46439;SDS011;32138;50.966;6.968;2023-03-31T00:52:33;8.38;;;1.77;;
46439;SDS011;32138;50.966;6.968;2023-03-31T00:53:36;5.15;;;1.90;;
46439;SDS011;32138;50.966;6.968;2023-03-31T00:54:37;11.15;;;1.98;;
46439;SDS011;32138;50.966;6.968;2023-03-31T00:55:45;7.88;;;2.03;;
46439;SDS011;32138;50.966;6.968;2023-03-31T00:56:50;9.60;;;2.00;;
46439;SDS011;32138;50.966;6.968;2023-03-31T00:57:57;7.13;;;1.52;;
46439;SDS011;32138;50.966;6.968;2023-03-31T00:59:01;7.88;;;1.88;;
46439;SDS011;32138;50.966;6.968;2023-03-31T01:00:07;8.18;;;2.40;;
46439;SDS011;32138;50.966;6.968;2023-03-31T01:01:18;7.53;;;1.92;;
46439;SDS011;32138;50.966;6.968;2023-03-31T01:02:23;8.07;;;2.15;;
46439;SDS011;32138;50.966;6.968;2023-03-31T01:03:24;6.78;;;1.67;;
46439;SDS011;32138;50.966;6.968;2023-03-31T01:04:25;6.05;;;1.88;;
46439;SDS011;32138;50.966;6.968;2023-03-31T01:05:48;13.65;;;2.90;;
46439;SDS011;32138;50.966;6.968;2023-03-31T01:06:57;7.75;;;2.03;;
46439;SDS011;32138;50.966;6.968;2023-03-31T01:08:26;8.38;;;2.05;;
46439;SDS011;32138;50.966;6.968;2023-03-31T01:09:30;6.93;;;1.80;;
46439;SDS011;32138;50.966;6.968;2023-03-31T01:10:36;5.75;;;1.67;;
46439;SDS011;32138;50.966;6.968;2023-03-31T01:11:42;9.52;;;2.83;;
46439;SDS011;32138;50.966;6.968;2023-03-31T01:12:46;6.70;;;2.10;;
46439;SDS011;32138;50.966;6.968;2023-03-31T01:13:51;11.30;;;2.50;;
46439;SDS011;32138;50.966;6.968;2023-03-31T01:14:55;7.05;;;1.67;;
46439;SDS011;32138;50.966;6.968;2023-03-31T01:15:56;8.25;;;2.42;;
46439;SDS011;32138;50.966;6.968;2023-03-31T01:16:57;8.23;;;1.95;;
46439;SDS011;32138;50.966;6.968;2023-03-31T01:17:58;5.88;;;1.60;;
46439;SDS011;32138;50.966;6.968;2023-03-31T01:18:59;7.25;;;1.88;;
46439;SDS011;32138;50.966;6.968;2023-03-31T01:20:04;6.88;;;1.95;;
46439;SDS011;32138;50.966;6.968;2023-03-31T01:21:42;5.80;;;1.85;;
46439;SDS011;32138;50.966;6.968;2023-03-31T01:24:56;4.32;;;1.58;;
46439;SDS011;32138;50.966;6.968;2023-03-31T01:27:22;4.65;;;1.45;;
46439;SDS011;32138;50.966;6.968;2023-03-31T01:28:55;6.15;;;2.42;;
46439;SDS011;32138;50.966;6.968;2023-03-31T01:39:08;6.05;;;1.67;;
46439;SDS011;32138;50.966;6.968;2023-03-31T01:42:43;7.03;;;2.03;;
46439;SDS011;32138;50.966;6.968;2023-03-31T01:44:08;8.70;;;2.75;;
46439;SDS011;32138;50.966;6.968;2023-03-31T01:46:09;4.78;;;1.50;;
46439;SDS011;32138;50.966;6.968;2023-03-31T01:47:11;8.73;;;2.03;;
46439;SDS011;32138;50.966;6.968;2023-03-31T01:48:18;5.47;;;2.50;;
46439;SDS011;32138;50.966;6.968;2023-03-31T01:49:40;8.65;;;1.73;;
46439;SDS011;32138;50.966;6.968;2023-03-31T01:50:55;7.32;;;1.80;;
46439;SDS011;32138;50.966;6.968;2023-03-31T01:53:18;12.02;;;2.80;;
46439;SDS011;32138;50.966;6.968;2023-03-31T01:54:52;7.20;;;2.22;;
46439;SDS011;32138;50.966;6.968;2023-03-31T01:57:12;7.80;;;1.80;;
46439;SDS011;32138;50.966;6.968;2023-03-31T01:58:19;8.73;;;2.90;;
46439;SDS011;32138;50.966;6.968;2023-03-31T01:59:27;7.90;;;2.08;;
46439;SDS011;32138;50.966;6.968;2023-03-31T02:00:44;8.52;;;1.92;;
46439;SDS011;32138;50.966;6.968;2023-03-31T02:02:02;10.00;;;2.65;;
46439;SDS011;32138;50.966;6.968;2023-03-31T02:03:13;10.50;;;2.42;;
46439;SDS011;32138;50.966;6.968;2023-03-31T02:04:20;8.85;;;2.15;;
46439;SDS011;32138;50.966;6.968;2023-03-31T02:05:39;7.55;;;2.53;;
46439;SDS011;32138;50.966;6.968;2023-03-31T02:07:02;12.85;;;2.28;;
46439;SDS011;32138;50.966;6.968;2023-03-31T02:08:13;8.85;;;1.92;;
46439;SDS011;32138;50.966;6.968;2023-03-31T02:09:36;7.60;;;2.10;;
46439;SDS011;32138;50.966;6.968;2023-03-31T02:10:42;9.65;;;2.22;;
46439;SDS011;32138;50.966;6.968;2023-03-31T02:11:45;10.05;;;2.83;;
46439;SDS011;32138;50.966;6.968;2023-03-31T02:12:48;7.18;;;2.40;;
46439;SDS011;32138;50.966;6.968;2023-03-31T02:13:51;7.88;;;2.30;;
46439;SDS011;32138;50.966;6.968;2023-03-31T02:14:54;10.65;;;2.75;;
46439;SDS011;32138;50.966;6.968;2023-03-31T02:15:58;7.80;;;2.30;;
46439;SDS011;32138;50.966;6.968;2023-03-31T02:17:06;12.88;;;2.33;;
46439;SDS011;32138;50.966;6.968;2023-03-31T02:18:14;11.30;;;2.75;;
46439;SDS011;32138;50.966;6.968;2023-03-31T02:19:18;8.30;;;3.17;;
46439;SDS011;32138;50.966;6.968;2023-03-31T02:20:22;13.02;;;3.30;;
46439;SDS011;32138;50.966;6.968;2023-03-31T02:21:25;13.52;;;2.92;;
46439;SDS011;32138;50.966;6.968;2023-03-31T02:22:26;9.57;;;2.78;;
46439;SDS011;32138;50.966;6.968;2023-03-31T02:23:31;9.82;;;3.30;;
46439;SDS011;32138;50.966;6.968;2023-03-31T02:24:33;9.95;;;2.97;;
46439;SDS011;32138;50.966;6.968;2023-03-31T02:25:58;10.15;;;2.45;;
46439;SDS011;32138;50.966;6.968;2023-03-31T02:28:22;12.82;;;3.97;;
46439;SDS011;32138;50.966;6.968;2023-03-31T02:29:25;10.88;;;3.05;;
46439;SDS011;32138;50.966;6.968;2023-03-31T02:30:29;18.48;;;4.72;;
46439;SDS011;32138;50.966;6.968;2023-03-31T02:33:31;8.93;;;2.35;;
46439;SDS011;32138;50.966;6.968;2023-03-31T02:34:32;9.77;;;2.83;;
46439;SDS011;32138;50.966;6.968;2023-03-31T02:35:32;13.38;;;3.25;;
46439;SDS011;32138;50.966;6.968;2023-03-31T02:36:35;6.38;;;2.60;;
46439;SDS011;32138;50.966;6.968;2023-03-31T02:37:36;11.40;;;3.13;;
46439;SDS011;32138;50.966;6.968;2023-03-31T02:38:40;15.18;;;3.28;;
46439;SDS011;32138;50.966;6.968;2023-03-31T02:39:46;12.88;;;3.00;;
46439;SDS011;32138;50.966;6.968;2023-03-31T02:40:50;12.27;;;3.25;;
46439;SDS011;32138;50.966;6.968;2023-03-31T02:41:51;10.23;;;3.22;;
46439;SDS011;32138;50.966;6.968;2023-03-31T02:42:52;14.35;;;3.40;;
46439;SDS011;32138;50.966;6.968;2023-03-31T02:43:53;12.55;;;3.75;;
46439;SDS011;32138;50.966;6.968;2023-03-31T02:44:59;8.77;;;3.28;;
46439;SDS011;32138;50.966;6.968;2023-03-31T02:46:05;13.93;;;3.17;;
46439;SDS011;32138;50.966;6.968;2023-03-31T02:47:10;10.60;;;3.05;;
46439;SDS011;32138;50.966;6.968;2023-03-31T02:48:17;9.23;;;3.10;;
46439;SDS011;32138;50.966;6.968;2023-03-31T02:49:20;10.70;;;3.38;;
46439;SDS011;32138;50.966;6.968;2023-03-31T02:50:21;15.95;;;3.78;;
46439;SDS011;32138;50.966;6.968;2023-03-31T02:51:38;18.23;;;3.55;;
46439;SDS011;32138;50.966;6.968;2023-03-31T02:52:57;10.77;;;3.28;;
46439;SDS011;32138;50.966;6.968;2023-03-31T02:54:55;13.73;;;3.72;;
46439;SDS011;32138;50.966;6.968;2023-03-31T03:02:12;14.65;;;3.78;;
46439;SDS011;32138;50.966;6.968;2023-03-31T03:04:04;13.48;;;3.42;;
46439;SDS011;32138;50.966;6.968;2023-03-31T03:06:49;15.02;;;3.45;;
46439;SDS011;32138;50.966;6.968;2023-03-31T03:08:18;12.00;;;3.15;;
46439;SDS011;32138;50.966;6.968;2023-03-31T03:12:25;13.25;;;2.88;;
46439;SDS011;32138;50.966;6.968;2023-03-31T03:15:55;10.93;;;3.53;;
46439;SDS011;32138;50.966;6.968;2023-03-31T03:18:27;13.80;;;3.90;;
46439;SDS011;32138;50.966;6.968;2023-03-31T03:19:28;10.40;;;2.50;;
46439;SDS011;32138;50.966;6.968;2023-03-31T03:20:29;10.52;;;2.63;;
46439;SDS011;32138;50.966;6.968;2023-03-31T03:21:33;9.57;;;2.90;;
46439;SDS011;32138;50.966;6.968;2023-03-31T03:22:35;9.80;;;2.83;;
46439;SDS011;32138;50.966;6.968;2023-03-31T03:23:37;10.73;;;3.40;;
46439;SDS011;32138;50.966;6.968;2023-03-31T03:24:37;8.77;;;3.00;;
46439;SDS011;32138;50.966;6.968;2023-03-31T03:25:38;11.30;;;2.53;;
46439;SDS011;32138;50.966;6.968;2023-03-31T03:26:40;10.32;;;2.50;;
46439;SDS011;32138;50.966;6.968;2023-03-31T03:27:40;10.95;;;2.53;;
46439;SDS011;32138;50.966;6.968;2023-03-31T03:28:41;8.38;;;2.42;;
46439;SDS011;32138;50.966;6.968;2023-03-31T03:29:42;11.73;;;2.63;;
46439;SDS011;32138;50.966;6.968;2023-03-31T03:30:43;11.40;;;2.58;;
46439;SDS011;32138;50.966;6.968;2023-03-31T03:31:43;16.00;;;2.45;;
46439;SDS011;32138;50.966;6.968;2023-03-31T03:32:44;14.57;;;2.65;;
46439;SDS011;32138;50.966;6.968;2023-03-31T03:33:45;8.07;;;2.38;;
46439;SDS011;32138;50.966;6.968;2023-03-31T03:34:46;9.40;;;3.08;;
46439;SDS011;32138;50.966;6.968;2023-03-31T03:35:46;13.23;;;2.95;;
46439;SDS011;32138;50.966;6.968;2023-03-31T03:36:48;7.95;;;2.35;;
46439;SDS011;32138;50.966;6.968;2023-03-31T03:37:48;10.48;;;2.35;;
46439;SDS011;32138;50.966;6.968;2023-03-31T03:38:49;7.60;;;1.77;;
46439;SDS011;32138;50.966;6.968;2023-03-31T03:39:50;10.02;;;2.75;;
46439;SDS011;32138;50.966;6.968;2023-03-31T03:40:53;6.85;;;1.98;;
46439;SDS011;32138;50.966;6.968;2023-03-31T03:41:54;8.77;;;2.13;;
46439;SDS011;32138;50.966;6.968;2023-03-31T03:42:55;9.60;;;2.40;;
46439;SDS011;32138;50.966;6.968;2023-03-31T03:43:56;11.82;;;2.38;;
46439;SDS011;32138;50.966;6.968;2023-03-31T03:44:56;8.52;;;2.20;;
46439;SDS011;32138;50.966;6.968;2023-03-31T03:45:57;8.85;;;2.75;;
46439;SDS011;32138;50.966;6.968;2023-03-31T03:46:58;12.43;;;2.38;;
46439;SDS011;32138;50.966;6.968;2023-03-31T03:47:59;7.13;;;1.95;;
46439;SDS011;32138;50.966;6.968;2023-03-31T03:49:00;7.22;;;2.58;;
46439;SDS011;32138;50.966;6.968;2023-03-31T03:50:02;10.43;;;2.63;;
46439;SDS011;32138;50.966;6.968;2023-03-31T03:51:04;7.15;;;2.58;;
46439;SDS011;32138;50.966;6.968;2023-03-31T03:52:05;6.57;;;2.53;;
46439;SDS011;32138;50.966;6.968;2023-03-31T03:53:06;10.05;;;2.22;;
46439;SDS011;32138;50.966;6.968;2023-03-31T03:54:07;8.63;;;2.08;;
46439;SDS011;32138;50.966;6.968;2023-03-31T03:55:08;10.52;;;2.40;;
46439;SDS011;32138;50.966;6.968;2023-03-31T03:56:11;8.35;;;2.00;;
46439;SDS011;32138;50.966;6.968;2023-03-31T03:57:11;5.32;;;1.83;;
46439;SDS011;32138;50.966;6.968;2023-03-31T03:58:12;9.15;;;2.65;;
46439;SDS011;32138;50.966;6.968;2023-03-31T03:59:13;8.40;;;2.28;;
46439;SDS011;32138;50.966;6.968;2023-03-31T04:00:14;8.93;;;2.13;;
46439;SDS011;32138;50.966;6.968;2023-03-31T04:01:16;8.52;;;2.50;;
46439;SDS011;32138;50.966;6.968;2023-03-31T04:02:17;10.20;;;2.78;;
46439;SDS011;32138;50.966;6.968;2023-03-31T04:03:17;9.00;;;2.25;;
46439;SDS011;32138;50.966;6.968;2023-03-31T04:04:18;7.70;;;2.97;;
46439;SDS011;32138;50.966;6.968;2023-03-31T04:05:19;7.45;;;2.00;;
46439;SDS011;32138;50.966;6.968;2023-03-31T04:06:20;7.85;;;2.47;;
46439;SDS011;32138;50.966;6.968;2023-03-31T04:07:21;7.63;;;2.25;;
46439;SDS011;32138;50.966;6.968;2023-03-31T04:08:21;10.43;;;2.50;;
46439;SDS011;32138;50.966;6.968;2023-03-31T04:09:22;5.82;;;2.38;;
46439;SDS011;32138;50.966;6.968;2023-03-31T04:10:23;5.72;;;2.05;;
46439;SDS011;32138;50.966;6.968;2023-03-31T04:11:24;8.50;;;2.20;;
46439;SDS011;32138;50.966;6.968;2023-03-31T04:12:25;8.55;;;1.80;;
46439;SDS011;32138;50.966;6.968;2023-03-31T04:13:25;8.88;;;2.70;;
46439;SDS011;32138;50.966;6.968;2023-03-31T04:14:26;5.00;;;1.75;;
46439;SDS011;32138;50.966;6.968;2023-03-31T04:15:27;6.25;;;2.03;;
46439;SDS011;32138;50.966;6.968;2023-03-31T04:16:28;8.80;;;2.33;;
46439;SDS011;32138;50.966;6.968;2023-03-31T04:17:29;6.80;;;2.00;;
46439;SDS011;32138;50.966;6.968;2023-03-31T04:18:33;6.90;;;2.38;;
46439;SDS011;32138;50.966;6.968;2023-03-31T04:19:36;7.60;;;2.10;;
46439;SDS011;32138;50.966;6.968;2023-03-31T04:20:37;6.95;;;2.08;;
46439;SDS011;32138;50.966;6.968;2023-03-31T04:21:38;11.27;;;2.72;;
46439;SDS011;32138;50.966;6.968;2023-03-31T04:22:44;9.70;;;2.22;;
46439;SDS011;32138;50.966;6.968;2023-03-31T04:23:45;10.10;;;2.38;;
46439;SDS011;32138;50.966;6.968;2023-03-31T04:24:46;10.35;;;2.38;;
46439;SDS011;32138;50.966;6.968;2023-03-31T04:25:51;10.20;;;3.00;;
46439;SDS011;32138;50.966;6.968;2023-03-31T04:26:52;11.27;;;2.55;;
46439;SDS011;32138;50.966;6.968;2023-03-31T04:27:53;10.32;;;2.58;;
46439;SDS011;32138;50.966;6.968;2023-03-31T04:28:57;6.82;;;1.95;;
46439;SDS011;32138;50.966;6.968;2023-03-31T04:29:59;10.27;;;2.10;;
46439;SDS011;32138;50.966;6.968;2023-03-31T04:31:00;6.45;;;1.92;;
46439;SDS011;32138;50.966;6.968;2023-03-31T04:32:02;7.85;;;2.03;;
46439;SDS011;32138;50.966;6.968;2023-03-31T04:33:03;8.30;;;1.92;;
46439;SDS011;32138;50.966;6.968;2023-03-31T04:34:05;10.77;;;2.72;;
46439;SDS011;32138;50.966;6.968;2023-03-31T04:35:12;12.45;;;2.15;;
46439;SDS011;32138;50.966;6.968;2023-03-31T04:36:14;9.90;;;1.98;;
46439;SDS011;32138;50.966;6.968;2023-03-31T04:37:17;7.97;;;2.33;;
46439;SDS011;32138;50.966;6.968;2023-03-31T04:38:19;9.90;;;2.08;;
46439;SDS011;32138;50.966;6.968;2023-03-31T04:39:22;6.43;;;2.70;;
46439;SDS011;32138;50.966;6.968;2023-03-31T04:40:29;6.35;;;1.95;;
46439;SDS011;32138;50.966;6.968;2023-03-31T04:41:30;8.60;;;2.30;;
46439;SDS011;32138;50.966;6.968;2023-03-31T04:42:30;5.72;;;1.90;;
46439;SDS011;32138;50.966;6.968;2023-03-31T04:43:31;8.55;;;2.30;;
46439;SDS011;32138;50.966;6.968;2023-03-31T04:44:32;7.57;;;1.95;;
46439;SDS011;32138;50.966;6.968;2023-03-31T04:45:35;7.75;;;2.30;;
46439;SDS011;32138;50.966;6.968;2023-03-31T04:46:36;9.02;;;2.05;;
46439;SDS011;32138;50.966;6.968;2023-03-31T04:47:36;8.80;;;1.95;;
46439;SDS011;32138;50.966;6.968;2023-03-31T04:48:37;8.65;;;2.03;;
46439;SDS011;32138;50.966;6.968;2023-03-31T04:49:38;11.75;;;3.53;;
46439;SDS011;32138;50.966;6.968;2023-03-31T04:50:39;6.57;;;2.25;;
46439;SDS011;32138;50.966;6.968;2023-03-31T04:51:40;10.98;;;2.42;;
46439;SDS011;32138;50.966;6.968;2023-03-31T04:52:41;8.15;;;2.67;;
46439;SDS011;32138;50.966;6.968;2023-03-31T04:53:41;5.50;;;2.40;;
46439;SDS011;32138;50.966;6.968;2023-03-31T04:54:42;9.35;;;1.80;;
46439;SDS011;32138;50.966;6.968;2023-03-31T04:55:43;8.88;;;2.33;;
46439;SDS011;32138;50.966;6.968;2023-03-31T04:56:45;6.40;;;1.98;;
46439;SDS011;32138;50.966;6.968;2023-03-31T04:57:46;7.95;;;2.38;;
46439;SDS011;32138;50.966;6.968;2023-03-31T04:58:46;6.82;;;2.15;;
46439;SDS011;32138;50.966;6.968;2023-03-31T04:59:47;7.72;;;1.95;;
46439;SDS011;32138;50.966;6.968;2023-03-31T05:00:48;7.93;;;2.38;;
46439;SDS011;32138;50.966;6.968;2023-03-31T05:01:48;9.70;;;2.67;;
46439;SDS011;32138;50.966;6.968;2023-03-31T05:02:49;10.10;;;2.28;;
46439;SDS011;32138;50.966;6.968;2023-03-31T05:03:50;10.55;;;2.40;;
46439;SDS011;32138;50.966;6.968;2023-03-31T05:04:51;6.53;;;2.08;;
46439;SDS011;32138;50.966;6.968;2023-03-31T05:05:52;8.10;;;2.38;;
46439;SDS011;32138;50.966;6.968;2023-03-31T05:06:52;8.68;;;1.80;;
46439;SDS011;32138;50.966;6.968;2023-03-31T05:07:54;6.22;;;1.50;;
46439;SDS011;32138;50.966;6.968;2023-03-31T05:08:55;11.02;;;2.20;;
46439;SDS011;32138;50.966;6.968;2023-03-31T05:09:56;7.45;;;1.73;;
46439;SDS011;32138;50.966;6.968;2023-03-31T05:10:56;9.95;;;1.85;;
46439;SDS011;32138;50.966;6.968;2023-03-31T05:11:57;8.35;;;1.95;;
46439;SDS011;32138;50.966;6.968;2023-03-31T05:12:58;6.00;;;2.03;;
46439;SDS011;32138;50.966;6.968;2023-03-31T05:13:59;7.90;;;1.90;;
46439;SDS011;32138;50.966;6.968;2023-03-31T05:14:59;9.88;;;2.22;;
46439;SDS011;32138;50.966;6.968;2023-03-31T05:16:07;5.88;;;1.83;;
46439;SDS011;32138;50.966;6.968;2023-03-31T05:17:11;7.90;;;1.52;;
46439;SDS011;32138;50.966;6.968;2023-03-31T05:18:12;9.75;;;4.45;;
46439;SDS011;32138;50.966;6.968;2023-03-31T05:19:12;6.00;;;1.95;;
46439;SDS011;32138;50.966;6.968;2023-03-31T05:20:13;9.30;;;2.33;;
46439;SDS011;32138;50.966;6.968;2023-03-31T05:21:18;9.38;;;3.58;;
46439;SDS011;32138;50.966;6.968;2023-03-31T05:22:20;7.90;;;2.55;;
46439;SDS011;32138;50.966;6.968;2023-03-31T05:23:21;27.65;;;19.00;;
46439;SDS011;32138;50.966;6.968;2023-03-31T05:24:21;32.10;;;20.88;;
46439;SDS011;32138;50.966;6.968;2023-03-31T05:25:22;28.50;;;15.40;;
46439;SDS011;32138;50.966;6.968;2023-03-31T05:26:23;9.07;;;3.10;;
46439;SDS011;32138;50.966;6.968;2023-03-31T05:27:24;6.85;;;1.92;;
46439;SDS011;32138;50.966;6.968;2023-03-31T05:28:25;4.63;;;1.63;;
46439;SDS011;32138;50.966;6.968;2023-03-31T05:29:26;6.10;;;1.73;;
46439;SDS011;32138;50.966;6.968;2023-03-31T05:30:27;5.75;;;1.63;;
46439;SDS011;32138;50.966;6.968;2023-03-31T05:31:28;6.15;;;1.50;;
46439;SDS011;32138;50.966;6.968;2023-03-31T05:32:29;5.15;;;1.58;;
46439;SDS011;32138;50.966;6.968;2023-03-31T05:33:30;3.22;;;1.80;;
46439;SDS011;32138;50.966;6.968;2023-03-31T05:34:31;12.52;;;5.90;;
46439;SDS011;32138;50.966;6.968;2023-03-31T05:35:32;6.63;;;3.25;;
46439;SDS011;32138;50.966;6.968;2023-03-31T05:36:32;5.65;;;1.42;;
46439;SDS011;32138;50.966;6.968;2023-03-31T05:37:34;7.38;;;1.40;;
46439;SDS011;32138;50.966;6.968;2023-03-31T05:38:35;5.00;;;1.30;;
46439;SDS011;32138;50.966;6.968;2023-03-31T05:39:35;6.70;;;1.73;;
46439;SDS011;32138;50.966;6.968;2023-03-31T05:40:36;6.43;;;1.80;;
46439;SDS011;32138;50.966;6.968;2023-03-31T05:41:37;6.85;;;2.30;;
46439;SDS011;32138;50.966;6.968;2023-03-31T05:42:38;6.78;;;1.80;;
46439;SDS011;32138;50.966;6.968;2023-03-31T05:43:38;7.15;;;1.63;;
46439;SDS011;32138;50.966;6.968;2023-03-31T05:44:39;8.35;;;1.65;;
46439;SDS011;32138;50.966;6.968;2023-03-31T05:45:40;4.90;;;1.40;;
46439;SDS011;32138;50.966;6.968;2023-03-31T05:46:41;6.45;;;1.85;;
46439;SDS011;32138;50.966;6.968;2023-03-31T05:47:41;5.93;;;1.65;;
46439;SDS011;32138;50.966;6.968;2023-03-31T05:48:42;8.60;;;2.08;;
46439;SDS011;32138;50.966;6.968;2023-03-31T05:49:43;12.15;;;7.13;;
46439;SDS011;32138;50.966;6.968;2023-03-31T05:50:44;7.03;;;2.38;;
46439;SDS011;32138;50.966;6.968;2023-03-31T05:51:45;6.88;;;2.13;;
46439;SDS011;32138;50.966;6.968;2023-03-31T05:52:46;11.70;;;6.18;;
46439;SDS011;32138;50.966;6.968;2023-03-31T05:53:47;8.55;;;3.53;;
46439;SDS011;32138;50.966;6.968;2023-03-31T05:54:48;7.63;;;2.65;;
46439;SDS011;32138;50.966;6.968;2023-03-31T05:55:49;9.60;;;5.72;;
46439;SDS011;32138;50.966;6.968;2023-03-31T05:56:56;8.05;;;4.30;;
46439;SDS011;32138;50.966;6.968;2023-03-31T05:57:57;6.28;;;2.58;;
46439;SDS011;32138;50.966;6.968;2023-03-31T05:58:58;6.32;;;2.08;;
46439;SDS011;32138;50.966;6.968;2023-03-31T06:00:00;4.93;;;1.60;;
46439;SDS011;32138;50.966;6.968;2023-03-31T06:02:11;5.55;;;2.08;;
46439;SDS011;32138;50.966;6.968;2023-03-31T06:03:12;4.68;;;1.33;;
46439;SDS011;32138;50.966;6.968;2023-03-31T06:04:13;4.80;;;1.02;;
46439;SDS011;32138;50.966;6.968;2023-03-31T06:05:14;3.75;;;1.42;;
46439;SDS011;32138;50.966;6.968;2023-03-31T06:06:15;4.22;;;1.30;;
46439;SDS011;32138;50.966;6.968;2023-03-31T06:07:16;4.72;;;1.90;;
46439;SDS011;32138;50.966;6.968;2023-03-31T06:08:17;3.35;;;1.27;;
46439;SDS011;32138;50.966;6.968;2023-03-31T06:09:18;6.68;;;1.48;;
46439;SDS011;32138;50.966;6.968;2023-03-31T06:10:19;3.83;;;0.95;;
46439;SDS011;32138;50.966;6.968;2023-03-31T06:11:20;6.22;;;1.38;;
46439;SDS011;32138;50.966;6.968;2023-03-31T06:12:22;3.97;;;1.00;;
46439;SDS011;32138;50.966;6.968;2023-03-31T06:13:22;3.58;;;0.90;;
46439;SDS011;32138;50.966;6.968;2023-03-31T06:14:23;3.72;;;1.00;;
46439;SDS011;32138;50.966;6.968;2023-03-31T06:15:24;5.10;;;1.48;;
46439;SDS011;32138;50.966;6.968;2023-03-31T06:16:25;3.85;;;0.90;;
46439;SDS011;32138;50.966;6.968;2023-03-31T06:17:27;7.10;;;1.10;;
46439;SDS011;32138;50.966;6.968;2023-03-31T06:18:29;2.63;;;0.77;;
46439;SDS011;32138;50.966;6.968;2023-03-31T06:19:31;3.10;;;1.08;;
46439;SDS011;32138;50.966;6.968;2023-03-31T06:20:32;4.05;;;1.17;;
46439;SDS011;32138;50.966;6.968;2023-03-31T06:21:33;2.83;;;0.80;;
46439;SDS011;32138;50.966;6.968;2023-03-31T06:22:33;3.85;;;0.98;;
46439;SDS011;32138;50.966;6.968;2023-03-31T06:23:34;4.63;;;1.33;;
46439;SDS011;32138;50.966;6.968;2023-03-31T06:24:35;5.20;;;1.48;;
46439;SDS011;32138;50.966;6.968;2023-03-31T06:25:39;1.92;;;1.13;;
46439;SDS011;32138;50.966;6.968;2023-03-31T06:26:39;4.20;;;1.15;;
46439;SDS011;32138;50.966;6.968;2023-03-31T06:27:40;1.90;;;0.68;;
46439;SDS011;32138;50.966;6.968;2023-03-31T06:28:42;1.65;;;0.70;;
46439;SDS011;32138;50.966;6.968;2023-03-31T06:29:43;3.60;;;0.90;;
46439;SDS011;32138;50.966;6.968;2023-03-31T06:30:44;2.28;;;0.60;;
46439;SDS011;32138;50.966;6.968;2023-03-31T06:31:45;3.95;;;0.68;;
46439;SDS011;32138;50.966;6.968;2023-03-31T06:32:46;1.67;;;0.50;;
46439;SDS011;32138;50.966;6.968;2023-03-31T06:33:49;1.60;;;0.63;;
46439;SDS011;32138;50.966;6.968;2023-03-31T06:34:51;3.30;;;0.60;;
46439;SDS011;32138;50.966;6.968;2023-03-31T06:35:53;3.00;;;0.60;;
46439;SDS011;32138;50.966;6.968;2023-03-31T06:36:56;1.55;;;0.60;;
46439;SDS011;32138;50.966;6.968;2023-03-31T06:37:56;2.22;;;0.73;;
46439;SDS011;32138;50.966;6.968;2023-03-31T06:38:57;2.85;;;0.70;;
46439;SDS011;32138;50.966;6.968;2023-03-31T06:39:58;2.13;;;0.40;;
46439;SDS011;32138;50.966;6.968;2023-03-31T06:40:58;2.28;;;0.70;;
46439;SDS011;32138;50.966;6.968;2023-03-31T06:41:59;3.13;;;0.60;;
46439;SDS011;32138;50.966;6.968;2023-03-31T06:43:01;2.20;;;0.63;;
46439;SDS011;32138;50.966;6.968;2023-03-31T06:44:01;1.70;;;0.63;;
46439;SDS011;32138;50.966;6.968;2023-03-31T06:45:02;2.42;;;0.75;;
46439;SDS011;32138;50.966;6.968;2023-03-31T06:46:03;1.35;;;0.60;;
46439;SDS011;32138;50.966;6.968;2023-03-31T06:47:04;3.05;;;0.80;;
46439;SDS011;32138;50.966;6.968;2023-03-31T06:48:05;2.45;;;0.80;;
46439;SDS011;32138;50.966;6.968;2023-03-31T06:49:06;5.05;;;1.10;;
46439;SDS011;32138;50.966;6.968;2023-03-31T06:50:07;4.38;;;0.90;;
46439;SDS011;32138;50.966;6.968;2023-03-31T06:51:09;3.55;;;0.77;;
46439;SDS011;32138;50.966;6.968;2023-03-31T06:52:10;4.20;;;0.98;;
46439;SDS011;32138;50.966;6.968;2023-03-31T06:53:11;1.20;;;0.40;;
46439;SDS011;32138;50.966;6.968;2023-03-31T06:54:12;3.50;;;0.77;;
46439;SDS011;32138;50.966;6.968;2023-03-31T06:55:13;4.90;;;0.40;;
46439;SDS011;32138;50.966;6.968;2023-03-31T06:56:15;1.30;;;0.65;;
46439;SDS011;32138;50.966;6.968;2023-03-31T06:57:15;1.50;;;0.50;;
46439;SDS011;32138;50.966;6.968;2023-03-31T06:58:16;2.50;;;0.60;;
46439;SDS011;32138;50.966;6.968;2023-03-31T06:59:17;1.95;;;0.60;;
46439;SDS011;32138;50.966;6.968;2023-03-31T07:00:18;3.03;;;0.70;;
46439;SDS011;32138;50.966;6.968;2023-03-31T07:01:19;1.52;;;0.50;;
46439;SDS011;32138;50.966;6.968;2023-03-31T07:02:20;1.33;;;0.40;;